createdAt,value
2023-04-13T00:01:27.353Z,7.22
2023-04-13T00:03:55.363Z,7.22
2023-04-13T00:06:24.129Z,7.24
2023-04-13T00:08:52.433Z,7.27
2023-04-13T00:11:20.374Z,7.24
2023-04-13T00:13:49.074Z,7.23
2023-04-13T00:16:17.372Z,7.22
2023-04-13T00:18:46.397Z,7.21
2023-04-13T00:21:18.083Z,7.18
2023-04-13T00:23:46.039Z,7.16
2023-04-13T00:26:13.978Z,7.13
2023-04-13T00:28:42.483Z,7.15
2023-04-13T00:31:10.553Z,7.10
2023-04-13T00:33:38.648Z,7.09
2023-04-13T00:36:07.406Z,7.07
2023-04-13T00:38:35.429Z,7.07
2023-04-13T00:41:03.681Z,7.09
2023-04-13T00:43:31.581Z,7.07
2023-04-13T00:45:59.723Z,7.10
2023-04-13T00:48:28.582Z,7.12
2023-04-13T00:50:56.584Z,7.13
2023-04-13T00:53:24.954Z,7.14
2023-04-13T00:55:53.088Z,7.18
2023-04-13T00:58:21.069Z,7.19
2023-04-13T01:00:49.051Z,7.22
2023-04-13T01:03:17.316Z,7.19
2023-04-13T01:06:12.834Z,7.21
2023-04-13T01:08:46.805Z,7.22
2023-04-13T01:11:21.325Z,7.24
2023-04-13T01:13:54.044Z,7.18
2023-04-13T01:16:25.093Z,7.16
2023-04-13T01:18:54.518Z,7.14
2023-04-13T01:21:29.101Z,7.10
2023-04-13T01:24:12.221Z,7.10
2023-04-13T01:26:54.729Z,7.10
2023-04-13T01:29:22.728Z,7.02
2023-04-13T01:31:51.257Z,6.99
2023-04-13T01:34:19.544Z,6.99
2023-04-13T01:36:47.669Z,7.00
2023-04-13T01:39:22.464Z,7.05
2023-04-13T01:41:50.575Z,7.08
2023-04-13T01:44:18.849Z,7.08
2023-04-13T01:46:48.900Z,7.07
2023-04-13T01:49:17.806Z,7.09
2023-04-13T01:51:46.672Z,7.07
2023-04-13T01:54:19.776Z,7.04
2023-04-13T01:56:48.317Z,7.04
2023-04-13T01:59:17.902Z,7.03
2023-04-13T02:01:46.118Z,7.03
2023-04-13T02:04:15.418Z,7.01
2023-04-13T02:06:43.745Z,7.03
2023-04-13T02:09:12.400Z,6.94
2023-04-13T02:11:40.370Z,6.95
2023-04-13T02:14:08.581Z,6.98
2023-04-13T02:16:36.599Z,7.01
2023-04-13T02:19:04.634Z,7.00
2023-04-13T02:21:32.622Z,7.04
2023-04-13T02:24:00.985Z,7.05
2023-04-13T02:26:29.906Z,7.08
2023-04-13T02:28:57.959Z,7.11
2023-04-13T02:31:26.099Z,7.13
2023-04-13T02:33:55.061Z,7.11
2023-04-13T02:36:23.934Z,7.08
2023-04-13T02:38:52.164Z,7.04
2023-04-13T02:41:24.202Z,7.08
2023-04-13T02:43:52.502Z,7.05
2023-04-13T02:46:20.743Z,7.06
2023-04-13T02:48:49.014Z,7.06
2023-04-13T02:51:17.112Z,7.01
2023-04-13T02:53:45.069Z,7.04
2023-04-13T02:56:13.165Z,7.08
2023-04-13T02:58:43.189Z,7.10
2023-04-13T03:01:11.252Z,7.12
2023-04-13T03:03:40.069Z,7.12
2023-04-13T03:06:08.527Z,7.15
2023-04-13T03:08:36.576Z,7.14
2023-04-13T03:11:05.375Z,7.16
2023-04-13T03:13:33.709Z,7.16
2023-04-13T03:16:01.905Z,7.16
2023-04-13T03:18:29.923Z,7.13
2023-04-13T03:20:57.998Z,7.11
2023-04-13T03:23:25.977Z,7.13
2023-04-13T03:25:53.931Z,7.09
2023-04-13T03:28:21.840Z,7.09
2023-04-13T03:30:49.845Z,7.11
2023-04-13T03:33:18.010Z,7.14
2023-04-13T03:35:45.992Z,7.13
2023-04-13T03:38:13.969Z,7.16
2023-04-13T03:40:42.233Z,7.18
2023-04-13T03:43:10.322Z,7.18
2023-04-13T03:45:38.312Z,7.19
2023-04-13T03:48:07.299Z,7.20
2023-04-13T03:50:35.297Z,7.20
2023-04-13T03:53:03.703Z,7.19
2023-04-13T03:55:31.645Z,7.14
2023-04-13T03:58:00.195Z,7.14
2023-04-13T04:00:28.171Z,7.14
2023-04-13T04:02:56.304Z,7.15
2023-04-13T04:05:24.533Z,7.16
2023-04-13T04:07:52.716Z,7.19
2023-04-13T04:10:21.064Z,7.18
2023-04-13T04:12:49.121Z,7.17
2023-04-13T04:15:17.293Z,7.19
2023-04-13T04:17:45.303Z,7.20
2023-04-13T04:20:13.514Z,7.21
2023-04-13T04:22:43.137Z,7.20
2023-04-13T04:25:11.498Z,7.21
2023-04-13T04:27:39.908Z,7.19
2023-04-13T04:30:08.583Z,7.18
2023-04-13T04:32:37.826Z,7.19
2023-04-13T04:35:06.234Z,7.23
2023-04-13T04:37:38.769Z,7.23
2023-04-13T04:40:10.972Z,7.25
2023-04-13T04:42:39.428Z,7.23
2023-04-13T04:45:08.429Z,7.15
2023-04-13T04:47:43.347Z,7.12
2023-04-13T04:50:12.676Z,7.14
2023-04-13T04:52:40.814Z,7.13
2023-04-13T04:55:09.365Z,7.10
2023-04-13T04:57:37.532Z,7.06
2023-04-13T05:00:18.216Z,7.05
2023-04-13T05:02:46.324Z,7.08
2023-04-13T05:05:14.392Z,7.04
2023-04-13T05:07:42.343Z,7.04
2023-04-13T05:10:11.333Z,7.05
2023-04-13T05:12:39.353Z,7.05
2023-04-13T05:15:08.212Z,7.06
2023-04-13T05:17:37.687Z,7.06
2023-04-13T05:20:08.364Z,7.08
2023-04-13T05:22:36.432Z,7.08
2023-04-13T05:25:04.448Z,7.07
2023-04-13T05:27:32.418Z,7.08
2023-04-13T05:30:00.465Z,7.07
2023-04-13T05:32:28.645Z,7.09
2023-04-13T05:34:56.719Z,7.09
2023-04-13T05:37:24.818Z,7.10
2023-04-13T05:39:53.394Z,7.11
2023-04-13T05:42:21.476Z,7.12
2023-04-13T05:44:49.512Z,7.15
2023-04-13T05:47:18.208Z,7.13
2023-04-13T05:49:46.099Z,7.12
2023-04-13T05:52:14.130Z,7.16
2023-04-13T05:54:42.341Z,7.16
2023-04-13T05:57:10.341Z,7.17
2023-04-13T05:59:39.157Z,7.19
2023-04-13T06:02:07.527Z,7.22
2023-04-13T06:04:36.419Z,7.23
2023-04-13T06:07:04.512Z,7.22
2023-04-13T06:09:32.490Z,7.19
2023-04-13T06:12:00.674Z,7.23
2023-04-13T06:14:29.393Z,7.60
2023-04-13T06:16:57.515Z,8.02
2023-04-13T06:19:28.425Z,8.02
2023-04-13T06:21:57.553Z,7.74
2023-04-13T06:24:25.560Z,7.50
2023-04-13T06:26:53.635Z,7.31
2023-04-13T06:29:21.705Z,7.28
2023-04-13T06:31:49.659Z,7.17
2023-04-13T06:34:17.717Z,7.12
2023-04-13T06:36:45.618Z,7.06
2023-04-13T06:39:13.597Z,7.03
2023-04-13T06:41:41.634Z,7.04
2023-04-13T06:44:10.030Z,7.03
2023-04-13T06:46:38.004Z,7.01
2023-04-13T06:49:06.583Z,7.00
2023-04-13T06:51:35.306Z,6.99
2023-04-13T06:54:03.305Z,7.02
2023-04-13T06:56:31.286Z,6.98
2023-04-13T06:59:03.089Z,7.02
2023-04-13T07:01:31.364Z,7.07
2023-04-13T07:04:00.324Z,7.03
2023-04-13T07:06:28.873Z,7.10
2023-04-13T07:08:56.993Z,7.11
2023-04-13T07:11:27.522Z,7.10
2023-04-13T07:13:55.483Z,7.09
2023-04-13T07:16:23.544Z,7.06
2023-04-13T07:18:51.646Z,7.11
2023-04-13T07:21:19.698Z,7.20
2023-04-13T07:23:47.837Z,7.24
2023-04-13T07:26:16.621Z,7.25
2023-04-13T07:28:44.721Z,7.35
2023-04-13T07:31:13.303Z,7.42
2023-04-13T07:33:41.299Z,7.35
2023-04-13T07:36:10.045Z,7.41
2023-04-13T07:38:38.124Z,7.41
2023-04-13T07:41:06.203Z,7.44
2023-04-13T07:43:36.436Z,7.43
2023-04-13T07:46:10.386Z,7.47
2023-04-13T07:48:38.490Z,7.51
2023-04-13T07:51:06.703Z,7.51
2023-04-13T07:53:34.683Z,7.58
2023-04-13T07:56:02.934Z,7.59
2023-04-13T07:58:30.881Z,7.72
2023-04-13T08:00:58.974Z,7.75
2023-04-13T08:03:27.167Z,7.87
2023-04-13T08:05:55.274Z,7.80
2023-04-13T08:08:23.440Z,7.97
2023-04-13T08:10:51.376Z,8.07
2023-04-13T08:13:20.041Z,8.18
2023-04-13T08:15:48.144Z,8.33
2023-04-13T08:18:16.270Z,8.48
2023-04-13T08:20:44.277Z,8.62
2023-04-13T08:23:12.683Z,8.64
2023-04-13T08:25:42.478Z,8.79
2023-04-13T08:28:11.046Z,8.89
2023-04-13T08:30:39.217Z,8.86
2023-04-13T08:33:07.339Z,8.97
2023-04-13T08:35:37.422Z,9.01
2023-04-13T08:38:05.594Z,8.98
2023-04-13T08:40:37.095Z,8.99
2023-04-13T08:43:05.102Z,9.05
2023-04-13T08:45:33.223Z,9.06
2023-04-13T08:48:03.255Z,9.26
2023-04-13T08:50:31.469Z,9.37
2023-04-13T08:52:59.465Z,9.35
2023-04-13T08:55:27.825Z,9.57
2023-04-13T08:57:55.805Z,9.77
2023-04-13T09:00:25.224Z,9.94
2023-04-13T09:03:04.461Z,9.98
2023-04-13T09:05:35.434Z,10.08
2023-04-13T09:08:06.089Z,10.22
2023-04-13T09:10:34.708Z,10.43
2023-04-13T09:13:03.138Z,10.39
2023-04-13T09:15:32.351Z,10.42
2023-04-13T09:18:10.913Z,10.55
2023-04-13T09:20:39.660Z,10.50
2023-04-13T09:23:17.445Z,10.48
2023-04-13T09:25:46.645Z,10.57
2023-04-13T09:28:21.096Z,10.58
2023-04-13T09:30:49.237Z,10.57
2023-04-13T09:33:18.249Z,10.62
2023-04-13T09:35:46.278Z,10.98
2023-04-13T09:38:16.757Z,11.10
2023-04-13T09:40:51.129Z,10.95
2023-04-13T09:43:19.245Z,10.92
2023-04-13T09:45:47.297Z,10.86
2023-04-13T09:48:20.243Z,10.74
2023-04-13T09:50:58.614Z,10.80
2023-04-13T09:53:26.736Z,11.07
2023-04-13T09:55:59.529Z,11.07
2023-04-13T09:58:28.286Z,11.10
2023-04-13T10:00:56.478Z,11.30
2023-04-13T10:03:24.969Z,11.83
2023-04-13T10:05:59.650Z,11.93
2023-04-13T10:11:00.303Z,11.67
2023-04-13T10:13:31.757Z,11.73
2023-04-13T10:16:12.046Z,11.80
2023-04-13T10:18:50.552Z,11.66
2023-04-13T10:21:18.542Z,11.64
2023-04-13T10:23:46.565Z,11.60
2023-04-13T10:26:14.667Z,11.64
2023-04-13T10:28:46.542Z,11.28
2023-04-13T10:31:14.793Z,11.09
2023-04-13T10:33:52.676Z,11.31
2023-04-13T10:36:20.716Z,11.38
2023-04-13T10:38:48.723Z,11.41
2023-04-13T10:41:26.955Z,11.36
2023-04-13T10:44:15.208Z,11.32
2023-04-13T10:46:43.365Z,11.26
2023-04-13T10:49:11.470Z,11.31
2023-04-13T10:51:41.571Z,11.20
2023-04-13T10:54:10.233Z,11.12
2023-04-13T10:56:38.638Z,11.14
2023-04-13T10:59:06.796Z,11.11
2023-04-13T11:01:35.384Z,11.11
2023-04-13T11:04:09.828Z,11.13
2023-04-13T11:06:41.992Z,10.94
2023-04-13T11:09:15.972Z,10.79
2023-04-13T11:11:44.957Z,10.84
2023-04-13T11:14:22.278Z,10.86
2023-04-13T11:16:50.936Z,10.94
2023-04-13T11:19:20.353Z,11.02
2023-04-13T11:21:55.972Z,11.06
2023-04-13T11:24:35.200Z,11.06
2023-04-13T11:27:03.381Z,10.89
2023-04-13T11:29:31.607Z,10.84
2023-04-13T11:31:59.747Z,10.80
2023-04-13T11:34:27.898Z,10.76
2023-04-13T11:37:07.034Z,10.82
2023-04-13T11:39:36.515Z,10.84
2023-04-13T11:42:08.472Z,10.80
2023-04-13T11:44:39.714Z,10.80
2023-04-13T11:47:08.946Z,10.81
2023-04-13T11:49:37.433Z,10.76
2023-04-13T11:52:05.605Z,10.83
2023-04-13T11:54:34.098Z,10.93
2023-04-13T11:57:02.701Z,10.99
2023-04-13T11:59:30.731Z,10.99
2023-04-13T12:02:03.869Z,10.87
2023-04-13T12:04:40.247Z,10.63
2023-04-13T12:07:17.668Z,10.40
2023-04-13T12:15:09.867Z,10.30
2023-04-13T12:17:49.544Z,10.68
2023-04-13T12:20:20.225Z,10.63
2023-04-13T12:22:57.802Z,10.46
2023-04-13T12:25:35.950Z,10.64
2023-04-13T12:28:04.603Z,10.80
2023-04-13T12:30:33.329Z,10.73
2023-04-13T12:33:01.483Z,10.63
2023-04-13T12:35:29.462Z,10.75
2023-04-13T12:37:58.175Z,10.97
2023-04-13T12:40:26.162Z,11.17
2023-04-13T12:42:54.315Z,11.12
2023-04-13T12:45:22.412Z,11.09
2023-04-13T12:47:50.581Z,11.13
2023-04-13T12:50:18.612Z,11.10
2023-04-13T12:52:46.686Z,11.15
2023-04-13T12:55:14.918Z,11.29
2023-04-13T12:57:43.079Z,11.30
2023-04-13T13:00:12.834Z,11.32
2023-04-13T13:02:41.131Z,11.43
2023-04-13T13:05:10.681Z,11.44
2023-04-13T13:07:38.702Z,11.44
2023-04-13T13:10:15.163Z,11.61
2023-04-13T13:12:54.321Z,11.51
2023-04-13T13:15:22.401Z,11.40
2023-04-13T13:17:50.471Z,11.48
2023-04-13T13:20:18.635Z,11.51
2023-04-13T13:22:47.223Z,11.53
2023-04-13T13:25:17.511Z,11.62
2023-04-13T13:30:13.644Z,11.68
2023-04-13T13:32:41.752Z,11.62
2023-04-13T13:35:12.233Z,11.60
2023-04-13T13:37:41.095Z,11.62
2023-04-13T13:40:14.221Z,11.60
2023-04-13T13:45:13.426Z,11.64
2023-04-13T13:47:41.489Z,11.64
2023-04-13T13:50:10.041Z,11.58
2023-04-13T13:52:40.302Z,11.55
2023-04-13T13:55:14.017Z,11.53
2023-04-13T13:57:42.311Z,11.50
2023-04-13T14:00:28.968Z,11.40
2023-04-13T14:02:57.156Z,11.31
2023-04-13T14:05:25.386Z,11.26
2023-04-13T14:07:53.487Z,10.97
2023-04-13T14:10:21.731Z,10.84
2023-04-13T14:12:50.748Z,10.72
2023-04-13T14:15:19.138Z,10.74
2023-04-13T14:17:55.880Z,10.74
2023-04-13T14:20:35.726Z,10.67
2023-04-13T14:23:03.802Z,10.57
2023-04-13T14:25:31.921Z,10.58
2023-04-13T14:27:59.981Z,10.71
2023-04-13T14:30:28.544Z,10.70
2023-04-13T14:32:57.457Z,10.97
2023-04-13T14:35:26.181Z,10.78
2023-04-13T14:37:54.274Z,10.75
2023-04-13T14:40:24.615Z,10.57
2023-04-13T14:42:53.926Z,10.49
2023-04-13T14:45:22.341Z,10.29
2023-04-13T14:47:50.667Z,10.38
2023-04-13T14:50:18.845Z,10.43
2023-04-13T14:52:47.532Z,10.41
2023-04-13T14:55:15.817Z,10.42
2023-04-13T14:57:43.788Z,10.36
2023-04-13T15:00:17.547Z,10.25
2023-04-13T15:02:46.029Z,10.17
2023-04-13T15:05:14.816Z,10.15
2023-04-13T15:07:44.676Z,10.13
2023-04-13T15:10:12.784Z,10.15
2023-04-13T15:12:42.214Z,10.17
2023-04-13T15:15:11.193Z,10.09
2023-04-13T15:17:39.328Z,9.84
2023-04-13T15:20:08.979Z,9.63
2023-04-13T15:22:39.710Z,9.49
2023-04-13T15:25:08.221Z,9.29
2023-04-13T15:27:36.192Z,9.18
2023-04-13T15:30:05.335Z,9.05
2023-04-13T15:32:35.292Z,8.97
2023-04-13T15:35:03.384Z,8.84
2023-04-13T15:37:31.324Z,8.74
2023-04-13T15:39:59.393Z,8.62
2023-04-13T15:42:27.614Z,8.46
2023-04-13T15:44:56.532Z,8.32
2023-04-13T15:47:24.579Z,8.25
2023-04-13T15:49:52.604Z,8.14
2023-04-13T15:52:20.548Z,8.01
2023-04-13T15:54:49.081Z,7.93
2023-04-13T15:57:18.067Z,7.85
2023-04-13T15:59:46.097Z,7.74
2023-04-13T16:02:14.578Z,7.67
2023-04-13T16:04:42.968Z,7.60
2023-04-13T16:07:14.334Z,7.55
2023-04-13T16:09:45.781Z,7.52
2023-04-13T16:12:13.854Z,7.51
2023-04-13T16:14:46.557Z,7.44
2023-04-13T16:17:16.251Z,7.38
2023-04-13T16:19:47.990Z,7.26
2023-04-13T16:22:17.692Z,7.17
2023-04-13T16:24:45.756Z,7.10
2023-04-13T16:27:13.723Z,7.11
2023-04-13T16:29:43.076Z,7.11
2023-04-13T16:32:11.186Z,7.11
2023-04-13T16:34:39.205Z,7.11
2023-04-13T16:37:07.161Z,7.04
2023-04-13T16:39:35.326Z,7.00
2023-04-13T16:42:03.829Z,6.89
2023-04-13T16:44:31.880Z,6.93
2023-04-13T16:46:59.972Z,6.92
2023-04-13T16:49:28.155Z,6.90
2023-04-13T16:51:56.239Z,6.90
2023-04-13T16:54:24.205Z,6.88
2023-04-13T16:56:53.281Z,6.86
2023-04-13T16:59:21.457Z,6.86
2023-04-13T17:01:49.523Z,6.88
2023-04-13T17:04:17.885Z,6.88
2023-04-13T17:06:48.753Z,6.91
2023-04-13T17:09:16.677Z,6.93
2023-04-13T17:11:44.656Z,6.90
2023-04-13T17:14:12.729Z,6.91
2023-04-13T17:16:40.716Z,6.89
2023-04-13T17:19:08.724Z,6.89
2023-04-13T17:21:36.683Z,6.91
2023-04-13T17:24:04.842Z,6.86
2023-04-13T17:26:33.735Z,6.79
2023-04-13T17:29:02.675Z,6.71
2023-04-13T17:31:30.903Z,6.66
2023-04-13T17:33:58.952Z,6.68
2023-04-13T17:36:28.729Z,6.70
2023-04-13T17:38:56.813Z,6.75
2023-04-13T17:41:24.833Z,6.77
2023-04-13T17:43:52.857Z,6.81
2023-04-13T17:46:20.880Z,6.84
2023-04-13T17:48:49.246Z,6.86
2023-04-13T17:51:17.370Z,6.85
2023-04-13T17:53:45.470Z,6.83
2023-04-13T17:56:18.630Z,6.82
2023-04-13T17:58:46.845Z,6.84
2023-04-13T18:01:14.938Z,6.79
2023-04-13T18:03:43.279Z,6.76
2023-04-13T18:06:11.762Z,6.75
2023-04-13T18:08:39.806Z,6.75
2023-04-13T18:11:07.825Z,6.72
2023-04-13T18:13:36.083Z,6.68
2023-04-13T18:16:04.652Z,6.63
2023-04-13T18:18:32.702Z,6.59
2023-04-13T18:21:00.792Z,6.54
2023-04-13T18:23:28.811Z,6.53
2023-04-13T18:25:57.120Z,6.50
2023-04-13T18:28:25.274Z,6.46
2023-04-13T18:30:53.322Z,6.41
2023-04-13T18:33:21.266Z,6.41
2023-04-13T18:35:49.299Z,6.43
2023-04-13T18:38:17.682Z,6.43
2023-04-13T18:40:47.044Z,6.47
2023-04-13T18:43:15.091Z,6.47
2023-04-13T18:45:43.030Z,6.46
2023-04-13T18:48:11.640Z,6.43
2023-04-13T18:50:39.871Z,6.41
2023-04-13T18:53:07.978Z,6.15
2023-04-13T18:55:36.384Z,6.14
2023-04-13T18:58:04.454Z,6.11
2023-04-13T19:00:32.874Z,6.12
2023-04-13T19:03:01.185Z,5.99
2023-04-13T19:05:29.349Z,6.05
2023-04-13T19:07:59.926Z,6.13
2023-04-13T19:10:29.285Z,6.10
2023-04-13T19:12:57.639Z,6.08
2023-04-13T19:15:25.959Z,6.00
2023-04-13T19:17:54.095Z,5.96
2023-04-13T19:20:25.745Z,5.94
2023-04-13T19:22:53.782Z,5.95
2023-04-13T19:25:21.988Z,5.96
2023-04-13T19:27:51.368Z,5.95
2023-04-13T19:30:20.309Z,5.97
2023-04-13T19:32:49.169Z,6.01
2023-04-13T19:35:17.706Z,6.01
2023-04-13T19:37:45.788Z,6.02
2023-04-13T19:40:15.252Z,5.94
2023-04-13T19:42:43.953Z,5.87
2023-04-13T19:45:12.406Z,5.85
2023-04-13T19:47:40.857Z,5.80
2023-04-13T19:50:10.322Z,5.76
2023-04-13T19:52:39.265Z,5.72
2023-04-13T19:55:09.739Z,5.64
2023-04-13T19:57:41.838Z,5.59
2023-04-13T20:00:18.560Z,5.57
2023-04-13T20:02:48.256Z,5.64
2023-04-13T20:05:16.765Z,5.65
2023-04-13T20:07:44.717Z,5.69
2023-04-13T20:10:13.481Z,5.68
2023-04-13T20:12:41.533Z,5.74
2023-04-13T20:15:09.752Z,5.77
2023-04-13T20:17:37.792Z,5.76
2023-04-13T20:20:07.795Z,5.76
2023-04-13T20:22:35.745Z,5.78
2023-04-13T20:25:03.870Z,5.83
2023-04-13T20:27:32.067Z,5.87
2023-04-13T20:30:00.672Z,5.85
2023-04-13T20:32:28.725Z,5.85
2023-04-13T20:34:56.780Z,5.86
2023-04-13T20:37:24.782Z,5.88
2023-04-13T20:39:54.039Z,5.92
2023-04-13T20:42:23.190Z,5.91
2023-04-13T20:44:58.565Z,5.94
2023-04-13T20:47:28.668Z,5.93
2023-04-13T20:49:58.702Z,5.92
2023-04-13T20:52:28.630Z,5.92
2023-04-13T20:54:56.685Z,5.94
2023-04-13T20:57:24.656Z,5.94
2023-04-13T20:59:53.450Z,5.94
2023-04-13T21:02:21.923Z,5.96
2023-04-13T21:04:50.098Z,5.97
2023-04-13T21:07:18.283Z,5.98
2023-04-13T21:09:46.304Z,5.99
2023-04-13T21:12:14.314Z,5.94
2023-04-13T21:14:42.574Z,5.87
2023-04-13T21:17:10.590Z,5.85
2023-04-13T21:19:38.595Z,5.79
2023-04-13T21:22:06.928Z,5.79
2023-04-13T21:24:34.874Z,5.71
2023-04-13T21:27:02.964Z,5.63
2023-04-13T21:29:31.006Z,5.61
2023-04-13T21:31:59.666Z,5.67
2023-04-13T21:34:28.590Z,5.71
2023-04-13T21:36:56.513Z,5.73
2023-04-13T21:39:24.801Z,5.73
2023-04-13T21:41:52.916Z,5.76
2023-04-13T21:44:28.654Z,5.76
2023-04-13T21:46:57.961Z,5.79
2023-04-13T21:49:26.010Z,5.81
2023-04-13T21:51:54.020Z,5.69
2023-04-13T21:54:22.089Z,5.70
2023-04-13T21:56:50.616Z,5.67
2023-04-13T21:59:18.603Z,5.68
2023-04-13T22:01:47.178Z,5.70
2023-04-13T22:04:15.404Z,5.72
2023-04-13T22:06:43.394Z,5.73
2023-04-13T22:09:11.324Z,5.75
2023-04-13T22:11:39.666Z,5.77
2023-04-13T22:14:07.812Z,5.77
2023-04-13T22:16:35.772Z,5.75
2023-04-13T22:19:03.725Z,5.73
2023-04-13T22:21:31.748Z,5.72
2023-04-13T22:23:59.667Z,5.72
2023-04-13T22:26:27.700Z,5.75
2023-04-13T22:28:55.707Z,5.73
2023-04-13T22:31:23.682Z,5.70
2023-04-13T22:33:51.678Z,5.68
2023-04-13T22:36:21.095Z,5.65
2023-04-13T22:38:49.339Z,5.62
2023-04-13T22:41:17.526Z,5.62
2023-04-13T22:43:45.465Z,5.64
2023-04-13T22:46:13.475Z,5.65
2023-04-13T22:48:41.537Z,5.65
2023-04-13T22:51:09.618Z,5.64
2023-04-13T22:53:37.544Z,5.62
2023-04-13T22:56:05.934Z,5.62
2023-04-13T22:58:33.923Z,5.61
2023-04-13T23:01:02.113Z,5.61
2023-04-13T23:03:30.201Z,5.60
2023-04-13T23:05:58.245Z,5.61
2023-04-13T23:08:26.234Z,5.59
2023-04-13T23:10:54.185Z,5.60
2023-04-13T23:13:22.177Z,5.59
2023-04-13T23:15:50.190Z,5.61
2023-04-13T23:18:18.207Z,5.59
2023-04-13T23:20:46.205Z,5.59
2023-04-13T23:23:14.169Z,5.60
2023-04-13T23:25:42.230Z,5.61
2023-04-13T23:28:10.235Z,5.62
2023-04-13T23:30:38.324Z,5.62
2023-04-13T23:33:06.291Z,5.61
2023-04-13T23:35:34.387Z,5.61
2023-04-13T23:38:02.775Z,5.60
2023-04-13T23:40:30.755Z,5.61
2023-04-13T23:42:58.660Z,5.61
2023-04-13T23:45:26.637Z,5.60
2023-04-13T23:47:55.203Z,5.61
2023-04-13T23:50:23.625Z,5.61
2023-04-13T23:52:51.610Z,5.61
2023-04-13T23:55:19.496Z,5.59
2023-04-13T23:57:47.997Z,5.61
